Terminal Aerodrome Forecast
Issued by NWS Springfield, MO

Home | Current Version | Previous Version | Text Only | Print | Product List | Glossary On
Versions: 1 2 3 4 5 6 7 8 9 10 11 12 13 14 15 16
000
FTUS43 KSGF 011500 AAA
TAFSGF
TAF AMD
KSGF 011501Z 0115/0212 25009G18KT 6SM -SHRA BR OVC007
      TEMPO 0115/0117 4SM -RADZ BR OVC004
     FM011800 28017G27KT P6SM -SNDZ OVC010
     FM012000 30020G28KT P6SM OVC015
     FM020100 32013G18KT P6SM OVC020
     FM020900 33012KT P6SM OVC025=

USA.gov is the U.S. government's official web portal to all federal, state and local government web resources and services.